sensor_id;sensor_type;location;lat;lon;timestamp;P1;durP1;ratioP1;P2;durP2;ratioP2
50309;SDS011;36207;51.850;21.698;2023-03-01T00:01:31;85.40;;;41.30;;
50309;SDS011;36207;51.850;21.698;2023-03-01T00:03:58;85.80;;;40.70;;
50309;SDS011;36207;51.850;21.698;2023-03-01T00:06:24;88.50;;;41.50;;
50309;SDS011;36207;51.850;21.698;2023-03-01T00:08:51;89.90;;;41.20;;
50309;SDS011;36207;51.850;21.698;2023-03-01T00:11:19;85.20;;;41.10;;
50309;SDS011;36207;51.850;21.698;2023-03-01T00:13:48;82.30;;;40.60;;
50309;SDS011;36207;51.850;21.698;2023-03-01T00:16:17;86.70;;;40.50;;
50309;SDS011;36207;51.850;21.698;2023-03-01T00:18:45;87.30;;;42.40;;
50309;SDS011;36207;51.850;21.698;2023-03-01T00:21:11;88.40;;;40.90;;
50309;SDS011;36207;51.850;21.698;2023-03-01T00:23:37;81.20;;;40.20;;
50309;SDS011;36207;51.850;21.698;2023-03-01T00:26:08;82.00;;;40.40;;
50309;SDS011;36207;51.850;21.698;2023-03-01T00:28:37;77.30;;;39.40;;
50309;SDS011;36207;51.850;21.698;2023-03-01T00:31:04;82.90;;;39.60;;
50309;SDS011;36207;51.850;21.698;2023-03-01T00:33:30;81.60;;;39.50;;
50309;SDS011;36207;51.850;21.698;2023-03-01T00:35:59;84.40;;;40.00;;
50309;SDS011;36207;51.850;21.698;2023-03-01T00:38:26;76.50;;;37.50;;
50309;SDS011;36207;51.850;21.698;2023-03-01T00:40:52;81.20;;;38.60;;
50309;SDS011;36207;51.850;21.698;2023-03-01T00:43:18;76.90;;;37.80;;
50309;SDS011;36207;51.850;21.698;2023-03-01T00:45:44;74.10;;;38.10;;
50309;SDS011;36207;51.850;21.698;2023-03-01T00:48:10;77.20;;;38.80;;
50309;SDS011;36207;51.850;21.698;2023-03-01T00:50:36;84.40;;;40.50;;
50309;SDS011;36207;51.850;21.698;2023-03-01T00:53:02;80.30;;;39.70;;
50309;SDS011;36207;51.850;21.698;2023-03-01T00:55:27;82.60;;;39.80;;
50309;SDS011;36207;51.850;21.698;2023-03-01T00:57:53;77.00;;;37.40;;
50309;SDS011;36207;51.850;21.698;2023-03-01T01:00:19;78.20;;;38.10;;
50309;SDS011;36207;51.850;21.698;2023-03-01T01:02:46;82.10;;;39.50;;
50309;SDS011;36207;51.850;21.698;2023-03-01T01:05:12;83.00;;;40.00;;
50309;SDS011;36207;51.850;21.698;2023-03-01T01:07:38;90.10;;;41.40;;
50309;SDS011;36207;51.850;21.698;2023-03-01T01:10:04;83.30;;;39.00;;
50309;SDS011;36207;51.850;21.698;2023-03-01T01:12:31;73.30;;;37.80;;
50309;SDS011;36207;51.850;21.698;2023-03-01T01:14:57;80.50;;;39.60;;
50309;SDS011;36207;51.850;21.698;2023-03-01T01:17:23;77.80;;;37.80;;
50309;SDS011;36207;51.850;21.698;2023-03-01T01:19:49;84.50;;;38.80;;
50309;SDS011;36207;51.850;21.698;2023-03-01T01:22:15;81.30;;;39.00;;
50309;SDS011;36207;51.850;21.698;2023-03-01T01:24:41;75.60;;;37.90;;
50309;SDS011;36207;51.850;21.698;2023-03-01T01:27:07;82.50;;;40.60;;
50309;SDS011;36207;51.850;21.698;2023-03-01T01:29:33;78.50;;;39.80;;
50309;SDS011;36207;51.850;21.698;2023-03-01T01:31:59;80.80;;;40.50;;
50309;SDS011;36207;51.850;21.698;2023-03-01T01:34:24;77.00;;;39.80;;
50309;SDS011;36207;51.850;21.698;2023-03-01T01:36:51;86.40;;;40.80;;
50309;SDS011;36207;51.850;21.698;2023-03-01T01:39:21;84.00;;;41.80;;
50309;SDS011;36207;51.850;21.698;2023-03-01T01:41:48;81.20;;;40.40;;
50309;SDS011;36207;51.850;21.698;2023-03-01T01:44:21;79.60;;;39.90;;
50309;SDS011;36207;51.850;21.698;2023-03-01T01:49:53;78.70;;;40.20;;
50309;SDS011;36207;51.850;21.698;2023-03-01T01:52:21;83.30;;;39.90;;
50309;SDS011;36207;51.850;21.698;2023-03-01T01:58:04;75.80;;;37.70;;
50309;SDS011;36207;51.850;21.698;2023-03-01T02:00:12;74.20;;;37.70;;
50309;SDS011;36207;51.850;21.698;2023-03-01T02:02:42;78.80;;;38.80;;
50309;SDS011;36207;51.850;21.698;2023-03-01T02:05:24;73.70;;;37.40;;
50309;SDS011;36207;51.850;21.698;2023-03-01T02:07:52;73.60;;;37.00;;
50309;SDS011;36207;51.850;21.698;2023-03-01T02:10:19;69.00;;;36.30;;
50309;SDS011;36207;51.850;21.698;2023-03-01T02:12:46;72.00;;;36.00;;
50309;SDS011;36207;51.850;21.698;2023-03-01T02:15:12;75.50;;;37.00;;
50309;SDS011;36207;51.850;21.698;2023-03-01T02:17:38;72.90;;;37.30;;
50309;SDS011;36207;51.850;21.698;2023-03-01T02:20:14;71.80;;;35.80;;
50309;SDS011;36207;51.850;21.698;2023-03-01T02:22:48;75.60;;;37.30;;
50309;SDS011;36207;51.850;21.698;2023-03-01T02:30:24;71.00;;;36.20;;
50309;SDS011;36207;51.850;21.698;2023-03-01T02:32:53;66.90;;;35.30;;
50309;SDS011;36207;51.850;21.698;2023-03-01T02:35:33;69.00;;;35.70;;
50309;SDS011;36207;51.850;21.698;2023-03-01T02:38:02;67.90;;;36.40;;
50309;SDS011;36207;51.850;21.698;2023-03-01T02:40:31;72.70;;;36.80;;
50309;SDS011;36207;51.850;21.698;2023-03-01T02:42:59;68.00;;;35.90;;
50309;SDS011;36207;51.850;21.698;2023-03-01T02:45:26;73.10;;;35.70;;
50309;SDS011;36207;51.850;21.698;2023-03-01T02:47:56;66.00;;;34.70;;
50309;SDS011;36207;51.850;21.698;2023-03-01T02:55:47;68.20;;;35.50;;
50309;SDS011;36207;51.850;21.698;2023-03-01T02:58:13;71.90;;;37.40;;
50309;SDS011;36207;51.850;21.698;2023-03-01T03:00:41;73.10;;;37.30;;
50309;SDS011;36207;51.850;21.698;2023-03-01T03:03:13;73.60;;;36.50;;
50309;SDS011;36207;51.850;21.698;2023-03-01T03:05:40;69.40;;;35.60;;
50309;SDS011;36207;51.850;21.698;2023-03-01T03:08:07;69.70;;;37.00;;
50309;SDS011;36207;51.850;21.698;2023-03-01T03:10:34;68.00;;;36.30;;
50309;SDS011;36207;51.850;21.698;2023-03-01T03:13:04;70.90;;;36.90;;
50309;SDS011;36207;51.850;21.698;2023-03-01T03:15:35;75.70;;;37.50;;
50309;SDS011;36207;51.850;21.698;2023-03-01T03:18:02;71.00;;;36.90;;
50309;SDS011;36207;51.850;21.698;2023-03-01T03:20:30;70.60;;;36.10;;
50309;SDS011;36207;51.850;21.698;2023-03-01T03:22:57;70.40;;;36.80;;
50309;SDS011;36207;51.850;21.698;2023-03-01T03:25:24;69.80;;;35.90;;
50309;SDS011;36207;51.850;21.698;2023-03-01T03:27:51;65.50;;;35.60;;
50309;SDS011;36207;51.850;21.698;2023-03-01T03:30:28;66.40;;;35.50;;
50309;SDS011;36207;51.850;21.698;2023-03-01T03:32:56;71.60;;;35.00;;
50309;SDS011;36207;51.850;21.698;2023-03-01T03:37:51;68.30;;;34.10;;
50309;SDS011;36207;51.850;21.698;2023-03-01T03:43:02;73.40;;;35.40;;
50309;SDS011;36207;51.850;21.698;2023-03-01T03:45:29;69.70;;;33.60;;
50309;SDS011;36207;51.850;21.698;2023-03-01T03:47:55;66.40;;;34.10;;
50309;SDS011;36207;51.850;21.698;2023-03-01T03:50:21;62.00;;;33.30;;
50309;SDS011;36207;51.850;21.698;2023-03-01T03:52:47;69.60;;;32.20;;
50309;SDS011;36207;51.850;21.698;2023-03-01T03:55:13;62.30;;;31.90;;
50309;SDS011;36207;51.850;21.698;2023-03-01T03:57:39;66.30;;;33.00;;
50309;SDS011;36207;51.850;21.698;2023-03-01T04:00:10;67.10;;;34.80;;
50309;SDS011;36207;51.850;21.698;2023-03-01T04:02:40;66.00;;;33.80;;
50309;SDS011;36207;51.850;21.698;2023-03-01T04:05:07;71.40;;;35.30;;
50309;SDS011;36207;51.850;21.698;2023-03-01T04:07:35;66.70;;;35.40;;
50309;SDS011;36207;51.850;21.698;2023-03-01T04:10:02;64.70;;;34.70;;
50309;SDS011;36207;51.850;21.698;2023-03-01T04:12:30;65.50;;;34.50;;
50309;SDS011;36207;51.850;21.698;2023-03-01T04:14:56;66.20;;;34.20;;
50309;SDS011;36207;51.850;21.698;2023-03-01T04:17:22;68.10;;;34.10;;
50309;SDS011;36207;51.850;21.698;2023-03-01T04:19:47;72.00;;;34.60;;
50309;SDS011;36207;51.850;21.698;2023-03-01T04:22:14;61.70;;;32.70;;
50309;SDS011;36207;51.850;21.698;2023-03-01T04:24:42;69.10;;;34.00;;
50309;SDS011;36207;51.850;21.698;2023-03-01T04:27:09;70.10;;;34.50;;
50309;SDS011;36207;51.850;21.698;2023-03-01T04:29:34;66.70;;;34.10;;
50309;SDS011;36207;51.850;21.698;2023-03-01T04:32:00;68.70;;;33.70;;
50309;SDS011;36207;51.850;21.698;2023-03-01T04:34:26;64.90;;;33.40;;
50309;SDS011;36207;51.850;21.698;2023-03-01T04:36:52;63.70;;;32.90;;
50309;SDS011;36207;51.850;21.698;2023-03-01T04:39:18;62.40;;;32.80;;
50309;SDS011;36207;51.850;21.698;2023-03-01T04:41:44;68.30;;;33.30;;
50309;SDS011;36207;51.850;21.698;2023-03-01T04:44:10;62.10;;;33.90;;
50309;SDS011;36207;51.850;21.698;2023-03-01T04:46:36;71.10;;;34.20;;
50309;SDS011;36207;51.850;21.698;2023-03-01T04:49:02;67.50;;;33.80;;
50309;SDS011;36207;51.850;21.698;2023-03-01T04:51:29;66.80;;;34.20;;
50309;SDS011;36207;51.850;21.698;2023-03-01T04:53:54;61.20;;;32.00;;
50309;SDS011;36207;51.850;21.698;2023-03-01T04:56:20;61.50;;;33.30;;
50309;SDS011;36207;51.850;21.698;2023-03-01T04:58:48;65.30;;;31.90;;
50309;SDS011;36207;51.850;21.698;2023-03-01T05:01:15;61.60;;;33.10;;
50309;SDS011;36207;51.850;21.698;2023-03-01T05:03:44;63.80;;;32.70;;
50309;SDS011;36207;51.850;21.698;2023-03-01T05:06:12;65.60;;;32.40;;
50309;SDS011;36207;51.850;21.698;2023-03-01T05:08:38;61.10;;;33.10;;
50309;SDS011;36207;51.850;21.698;2023-03-01T05:11:05;62.10;;;32.00;;
50309;SDS011;36207;51.850;21.698;2023-03-01T05:13:34;66.60;;;32.60;;
50309;SDS011;36207;51.850;21.698;2023-03-01T05:16:04;62.00;;;33.50;;
50309;SDS011;36207;51.850;21.698;2023-03-01T05:18:33;62.90;;;33.20;;
50309;SDS011;36207;51.850;21.698;2023-03-01T05:21:04;66.20;;;33.00;;
50309;SDS011;36207;51.850;21.698;2023-03-01T05:23:33;60.80;;;31.90;;
50309;SDS011;36207;51.850;21.698;2023-03-01T05:26:00;58.00;;;31.60;;
50309;SDS011;36207;51.850;21.698;2023-03-01T05:28:27;62.20;;;32.20;;
50309;SDS011;36207;51.850;21.698;2023-03-01T05:30:54;65.80;;;33.20;;
50309;SDS011;36207;51.850;21.698;2023-03-01T05:33:20;64.90;;;32.30;;
50309;SDS011;36207;51.850;21.698;2023-03-01T05:35:47;62.30;;;32.00;;
50309;SDS011;36207;51.850;21.698;2023-03-01T05:38:15;71.10;;;34.10;;
50309;SDS011;36207;51.850;21.698;2023-03-01T05:40:42;67.30;;;33.20;;
50309;SDS011;36207;51.850;21.698;2023-03-01T05:43:09;67.00;;;33.50;;
50309;SDS011;36207;51.850;21.698;2023-03-01T05:45:36;65.50;;;32.30;;
50309;SDS011;36207;51.850;21.698;2023-03-01T05:48:03;69.20;;;33.50;;
50309;SDS011;36207;51.850;21.698;2023-03-01T05:50:32;67.70;;;33.00;;
50309;SDS011;36207;51.850;21.698;2023-03-01T05:53:01;77.30;;;37.20;;
50309;SDS011;36207;51.850;21.698;2023-03-01T05:55:31;97.60;;;45.10;;
50309;SDS011;36207;51.850;21.698;2023-03-01T05:57:58;69.80;;;35.30;;
50309;SDS011;36207;51.850;21.698;2023-03-01T06:00:25;60.80;;;31.40;;
50309;SDS011;36207;51.850;21.698;2023-03-01T06:02:53;61.10;;;32.80;;
50309;SDS011;36207;51.850;21.698;2023-03-01T06:05:19;60.90;;;32.80;;
50309;SDS011;36207;51.850;21.698;2023-03-01T06:07:45;62.20;;;32.30;;
50309;SDS011;36207;51.850;21.698;2023-03-01T06:10:11;61.40;;;31.60;;
50309;SDS011;36207;51.850;21.698;2023-03-01T06:12:39;115.70;;;47.70;;
50309;SDS011;36207;51.850;21.698;2023-03-01T06:15:06;102.10;;;43.70;;
50309;SDS011;36207;51.850;21.698;2023-03-01T06:17:35;84.60;;;39.90;;
50309;SDS011;36207;51.850;21.698;2023-03-01T06:20:03;73.30;;;34.40;;
50309;SDS011;36207;51.850;21.698;2023-03-01T06:22:31;80.60;;;36.80;;
50309;SDS011;36207;51.850;21.698;2023-03-01T06:24:57;83.50;;;36.30;;
50309;SDS011;36207;51.850;21.698;2023-03-01T06:27:23;79.80;;;37.90;;
50309;SDS011;36207;51.850;21.698;2023-03-01T06:29:49;76.90;;;37.30;;
50309;SDS011;36207;51.850;21.698;2023-03-01T06:32:15;68.00;;;33.70;;
50309;SDS011;36207;51.850;21.698;2023-03-01T06:34:41;62.20;;;32.80;;
50309;SDS011;36207;51.850;21.698;2023-03-01T06:37:07;64.80;;;33.00;;
50309;SDS011;36207;51.850;21.698;2023-03-01T06:39:33;62.20;;;32.40;;
50309;SDS011;36207;51.850;21.698;2023-03-01T06:41:59;59.30;;;30.80;;
50309;SDS011;36207;51.850;21.698;2023-03-01T06:44:25;57.80;;;30.00;;
50309;SDS011;36207;51.850;21.698;2023-03-01T06:46:51;61.00;;;29.20;;
50309;SDS011;36207;51.850;21.698;2023-03-01T06:49:17;55.90;;;29.70;;
50309;SDS011;36207;51.850;21.698;2023-03-01T06:51:44;59.00;;;29.90;;
50309;SDS011;36207;51.850;21.698;2023-03-01T06:54:10;63.20;;;30.20;;
50309;SDS011;36207;51.850;21.698;2023-03-01T06:56:36;59.20;;;29.90;;
50309;SDS011;36207;51.850;21.698;2023-03-01T06:59:02;56.40;;;29.10;;
50309;SDS011;36207;51.850;21.698;2023-03-01T07:01:28;51.60;;;27.20;;
50309;SDS011;36207;51.850;21.698;2023-03-01T07:03:55;58.20;;;28.50;;
50309;SDS011;36207;51.850;21.698;2023-03-01T07:06:21;52.60;;;27.70;;
50309;SDS011;36207;51.850;21.698;2023-03-01T07:08:47;56.50;;;28.70;;
50309;SDS011;36207;51.850;21.698;2023-03-01T07:11:13;52.20;;;27.20;;
50309;SDS011;36207;51.850;21.698;2023-03-01T07:13:39;52.70;;;27.10;;
50309;SDS011;36207;51.850;21.698;2023-03-01T07:16:06;56.60;;;28.30;;
50309;SDS011;36207;51.850;21.698;2023-03-01T07:18:32;54.30;;;28.60;;
50309;SDS011;36207;51.850;21.698;2023-03-01T07:20:58;53.70;;;29.10;;
50309;SDS011;36207;51.850;21.698;2023-03-01T07:23:23;54.10;;;28.40;;
50309;SDS011;36207;51.850;21.698;2023-03-01T07:25:53;55.10;;;28.70;;
50309;SDS011;36207;51.850;21.698;2023-03-01T07:28:20;53.10;;;28.20;;
50309;SDS011;36207;51.850;21.698;2023-03-01T07:30:47;51.00;;;28.10;;
50309;SDS011;36207;51.850;21.698;2023-03-01T07:33:13;51.90;;;27.40;;
50309;SDS011;36207;51.850;21.698;2023-03-01T07:35:39;55.80;;;28.80;;
50309;SDS011;36207;51.850;21.698;2023-03-01T07:38:05;54.10;;;28.10;;
50309;SDS011;36207;51.850;21.698;2023-03-01T07:40:30;52.40;;;27.60;;
50309;SDS011;36207;51.850;21.698;2023-03-01T07:42:57;54.70;;;26.80;;
50309;SDS011;36207;51.850;21.698;2023-03-01T07:45:23;54.60;;;27.70;;
50309;SDS011;36207;51.850;21.698;2023-03-01T07:47:53;52.90;;;27.30;;
50309;SDS011;36207;51.850;21.698;2023-03-01T07:50:20;54.40;;;27.50;;
50309;SDS011;36207;51.850;21.698;2023-03-01T07:52:48;51.90;;;26.00;;
50309;SDS011;36207;51.850;21.698;2023-03-01T07:55:15;49.80;;;26.80;;
50309;SDS011;36207;51.850;21.698;2023-03-01T07:57:41;45.20;;;25.60;;
50309;SDS011;36207;51.850;21.698;2023-03-01T08:00:09;47.80;;;27.00;;
50309;SDS011;36207;51.850;21.698;2023-03-01T08:02:36;47.10;;;25.10;;
50309;SDS011;36207;51.850;21.698;2023-03-01T08:05:03;42.70;;;24.30;;
50309;SDS011;36207;51.850;21.698;2023-03-01T08:07:29;45.30;;;25.40;;
50309;SDS011;36207;51.850;21.698;2023-03-01T08:09:54;43.40;;;24.90;;
50309;SDS011;36207;51.850;21.698;2023-03-01T08:12:20;44.10;;;26.10;;
50309;SDS011;36207;51.850;21.698;2023-03-01T08:14:46;45.70;;;25.00;;
50309;SDS011;36207;51.850;21.698;2023-03-01T08:17:15;46.50;;;24.50;;
50309;SDS011;36207;51.850;21.698;2023-03-01T08:19:42;40.50;;;23.00;;
50309;SDS011;36207;51.850;21.698;2023-03-01T08:22:08;40.90;;;23.80;;
50309;SDS011;36207;51.850;21.698;2023-03-01T08:24:34;41.40;;;23.40;;
50309;SDS011;36207;51.850;21.698;2023-03-01T08:26:59;40.60;;;22.20;;
50309;SDS011;36207;51.850;21.698;2023-03-01T08:29:26;40.00;;;21.90;;
50309;SDS011;36207;51.850;21.698;2023-03-01T08:31:52;40.50;;;23.50;;
50309;SDS011;36207;51.850;21.698;2023-03-01T08:34:18;39.00;;;22.90;;
50309;SDS011;36207;51.850;21.698;2023-03-01T08:36:44;40.40;;;22.50;;
50309;SDS011;36207;51.850;21.698;2023-03-01T08:39:12;39.60;;;21.30;;
50309;SDS011;36207;51.850;21.698;2023-03-01T08:41:40;41.10;;;23.00;;
50309;SDS011;36207;51.850;21.698;2023-03-01T08:44:06;38.90;;;22.50;;
50309;SDS011;36207;51.850;21.698;2023-03-01T08:46:36;35.80;;;20.90;;
50309;SDS011;36207;51.850;21.698;2023-03-01T08:49:04;33.30;;;19.60;;
50309;SDS011;36207;51.850;21.698;2023-03-01T08:51:32;34.00;;;19.90;;
50309;SDS011;36207;51.850;21.698;2023-03-01T08:54:03;35.30;;;19.00;;
50309;SDS011;36207;51.850;21.698;2023-03-01T08:56:33;31.70;;;17.10;;
50309;SDS011;36207;51.850;21.698;2023-03-01T08:58:59;32.20;;;19.30;;
50309;SDS011;36207;51.850;21.698;2023-03-01T09:01:25;34.30;;;19.20;;
50309;SDS011;36207;51.850;21.698;2023-03-01T09:03:51;31.70;;;18.60;;
50309;SDS011;36207;51.850;21.698;2023-03-01T09:06:17;32.10;;;18.30;;
50309;SDS011;36207;51.850;21.698;2023-03-01T09:08:47;32.50;;;19.00;;
50309;SDS011;36207;51.850;21.698;2023-03-01T09:11:15;31.90;;;18.90;;
50309;SDS011;36207;51.850;21.698;2023-03-01T09:13:44;34.00;;;18.70;;
50309;SDS011;36207;51.850;21.698;2023-03-01T09:16:11;31.50;;;18.80;;
50309;SDS011;36207;51.850;21.698;2023-03-01T09:18:39;28.90;;;17.30;;
50309;SDS011;36207;51.850;21.698;2023-03-01T09:23:33;31.20;;;17.50;;
50309;SDS011;36207;51.850;21.698;2023-03-01T09:26:05;25.90;;;16.70;;
50309;SDS011;36207;51.850;21.698;2023-03-01T09:28:31;27.40;;;16.90;;
50309;SDS011;36207;51.850;21.698;2023-03-01T09:30:58;28.00;;;16.10;;
50309;SDS011;36207;51.850;21.698;2023-03-01T09:33:25;26.90;;;16.60;;
50309;SDS011;36207;51.850;21.698;2023-03-01T09:36:02;27.90;;;17.70;;
50309;SDS011;36207;51.850;21.698;2023-03-01T09:38:29;28.20;;;16.70;;
50309;SDS011;36207;51.850;21.698;2023-03-01T09:40:56;26.20;;;17.10;;
50309;SDS011;36207;51.850;21.698;2023-03-01T09:46:09;28.00;;;16.70;;
50309;SDS011;36207;51.850;21.698;2023-03-01T09:51:37;23.70;;;14.60;;
50309;SDS011;36207;51.850;21.698;2023-03-01T09:54:04;23.10;;;14.80;;
50309;SDS011;36207;51.850;21.698;2023-03-01T09:59:30;21.30;;;14.10;;
50309;SDS011;36207;51.850;21.698;2023-03-01T10:04:57;24.00;;;14.70;;
50309;SDS011;36207;51.850;21.698;2023-03-01T10:10:01;26.30;;;14.10;;
50309;SDS011;36207;51.850;21.698;2023-03-01T10:12:34;23.70;;;13.90;;
50309;SDS011;36207;51.850;21.698;2023-03-01T10:15:07;24.00;;;15.00;;
50309;SDS011;36207;51.850;21.698;2023-03-01T10:17:51;23.80;;;14.50;;
50309;SDS011;36207;51.850;21.698;2023-03-01T10:20:23;24.60;;;14.30;;
50309;SDS011;36207;51.850;21.698;2023-03-01T10:22:59;24.60;;;14.70;;
50309;SDS011;36207;51.850;21.698;2023-03-01T10:28:17;23.10;;;14.40;;
50309;SDS011;36207;51.850;21.698;2023-03-01T10:30:50;23.60;;;14.10;;
50309;SDS011;36207;51.850;21.698;2023-03-01T10:33:25;22.30;;;13.70;;
50309;SDS011;36207;51.850;21.698;2023-03-01T10:35:54;19.20;;;12.20;;
50309;SDS011;36207;51.850;21.698;2023-03-01T10:38:20;22.50;;;13.00;;
50309;SDS011;36207;51.850;21.698;2023-03-01T10:40:51;21.40;;;13.30;;
50309;SDS011;36207;51.850;21.698;2023-03-01T10:43:25;22.40;;;13.10;;
50309;SDS011;36207;51.850;21.698;2023-03-01T10:45:57;20.90;;;12.80;;
50309;SDS011;36207;51.850;21.698;2023-03-01T10:48:24;21.10;;;12.80;;
50309;SDS011;36207;51.850;21.698;2023-03-01T10:53:34;18.80;;;11.30;;
50309;SDS011;36207;51.850;21.698;2023-03-01T10:58:37;19.50;;;11.90;;
50309;SDS011;36207;51.850;21.698;2023-03-01T11:01:05;18.30;;;10.60;;
50309;SDS011;36207;51.850;21.698;2023-03-01T11:04:07;20.80;;;10.70;;
50309;SDS011;36207;51.850;21.698;2023-03-01T11:06:37;19.00;;;10.50;;
50309;SDS011;36207;51.850;21.698;2023-03-01T11:09:14;16.80;;;10.70;;
50309;SDS011;36207;51.850;21.698;2023-03-01T11:11:43;20.00;;;11.60;;
50309;SDS011;36207;51.850;21.698;2023-03-01T11:14:17;18.90;;;10.20;;
50309;SDS011;36207;51.850;21.698;2023-03-01T11:16:47;19.70;;;11.00;;
50309;SDS011;36207;51.850;21.698;2023-03-01T11:19:23;17.00;;;9.70;;
50309;SDS011;36207;51.850;21.698;2023-03-01T11:24:46;15.70;;;9.50;;
50309;SDS011;36207;51.850;21.698;2023-03-01T11:33:01;14.70;;;9.20;;
50309;SDS011;36207;51.850;21.698;2023-03-01T11:35:47;15.40;;;8.60;;
50309;SDS011;36207;51.850;21.698;2023-03-01T11:38:26;14.90;;;8.80;;
50309;SDS011;36207;51.850;21.698;2023-03-01T11:40:58;16.10;;;9.30;;
50309;SDS011;36207;51.850;21.698;2023-03-01T11:43:33;14.80;;;9.30;;
50309;SDS011;36207;51.850;21.698;2023-03-01T12:03:16;12.10;;;7.60;;
50309;SDS011;36207;51.850;21.698;2023-03-01T12:11:11;12.20;;;6.90;;
50309;SDS011;36207;51.850;21.698;2023-03-01T12:38:45;13.40;;;7.40;;
50309;SDS011;36207;51.850;21.698;2023-03-01T12:43:51;15.40;;;8.20;;
50309;SDS011;36207;51.850;21.698;2023-03-01T12:49:23;12.10;;;6.90;;
50309;SDS011;36207;51.850;21.698;2023-03-01T12:52:18;13.00;;;7.30;;
50309;SDS011;36207;51.850;21.698;2023-03-01T12:54:49;12.60;;;7.10;;
50309;SDS011;36207;51.850;21.698;2023-03-01T12:57:38;12.20;;;7.40;;
50309;SDS011;36207;51.850;21.698;2023-03-01T13:03:18;11.30;;;6.70;;
50309;SDS011;36207;51.850;21.698;2023-03-01T13:05:45;11.90;;;6.80;;
50309;SDS011;36207;51.850;21.698;2023-03-01T13:08:29;11.10;;;6.70;;
50309;SDS011;36207;51.850;21.698;2023-03-01T13:11:04;11.50;;;6.50;;
50309;SDS011;36207;51.850;21.698;2023-03-01T13:13:37;13.00;;;6.80;;
50309;SDS011;36207;51.850;21.698;2023-03-01T13:16:20;13.40;;;6.70;;
50309;SDS011;36207;51.850;21.698;2023-03-01T13:21:42;13.20;;;7.50;;
50309;SDS011;36207;51.850;21.698;2023-03-01T13:35:00;12.50;;;7.90;;
50309;SDS011;36207;51.850;21.698;2023-03-01T13:37:27;13.40;;;8.10;;
50309;SDS011;36207;51.850;21.698;2023-03-01T13:39:56;12.80;;;7.90;;
50309;SDS011;36207;51.850;21.698;2023-03-01T13:42:31;14.30;;;7.80;;
50309;SDS011;36207;51.850;21.698;2023-03-01T13:45:14;14.90;;;9.00;;
50309;SDS011;36207;51.850;21.698;2023-03-01T13:47:41;16.30;;;9.00;;
50309;SDS011;36207;51.850;21.698;2023-03-01T13:50:16;16.80;;;9.50;;
50309;SDS011;36207;51.850;21.698;2023-03-01T13:55:22;16.00;;;9.30;;
50309;SDS011;36207;51.850;21.698;2023-03-01T13:57:53;15.80;;;8.40;;
50309;SDS011;36207;51.850;21.698;2023-03-01T14:03:01;16.50;;;9.90;;
50309;SDS011;36207;51.850;21.698;2023-03-01T14:05:40;16.00;;;9.80;;
50309;SDS011;36207;51.850;21.698;2023-03-01T14:08:19;21.00;;;11.10;;
50309;SDS011;36207;51.850;21.698;2023-03-01T14:10:53;15.30;;;9.60;;
50309;SDS011;36207;51.850;21.698;2023-03-01T14:21:44;19.60;;;11.20;;
50309;SDS011;36207;51.850;21.698;2023-03-01T14:24:17;18.40;;;10.70;;
50309;SDS011;36207;51.850;21.698;2023-03-01T14:26:47;20.10;;;12.10;;
50309;SDS011;36207;51.850;21.698;2023-03-01T14:34:38;21.80;;;11.70;;
50309;SDS011;36207;51.850;21.698;2023-03-01T14:37:21;19.80;;;11.80;;
50309;SDS011;36207;51.850;21.698;2023-03-01T14:39:53;20.80;;;11.80;;
50309;SDS011;36207;51.850;21.698;2023-03-01T14:42:21;21.50;;;12.20;;
50309;SDS011;36207;51.850;21.698;2023-03-01T14:44:49;18.50;;;11.40;;
50309;SDS011;36207;51.850;21.698;2023-03-01T14:47:25;18.20;;;11.40;;
50309;SDS011;36207;51.850;21.698;2023-03-01T14:52:35;17.20;;;10.70;;
50309;SDS011;36207;51.850;21.698;2023-03-01T14:55:13;19.70;;;12.40;;
50309;SDS011;36207;51.850;21.698;2023-03-01T14:57:44;19.90;;;12.10;;
50309;SDS011;36207;51.850;21.698;2023-03-01T15:00:17;21.40;;;13.20;;
50309;SDS011;36207;51.850;21.698;2023-03-01T15:02:55;20.30;;;12.70;;
50309;SDS011;36207;51.850;21.698;2023-03-01T15:05:30;21.70;;;12.90;;
50309;SDS011;36207;51.850;21.698;2023-03-01T15:07:58;21.70;;;13.00;;
50309;SDS011;36207;51.850;21.698;2023-03-01T15:10:26;21.30;;;12.40;;
50309;SDS011;36207;51.850;21.698;2023-03-01T15:12:55;20.10;;;11.90;;
50309;SDS011;36207;51.850;21.698;2023-03-01T15:20:50;18.70;;;11.40;;
50309;SDS011;36207;51.850;21.698;2023-03-01T15:23:19;19.20;;;11.60;;
50309;SDS011;36207;51.850;21.698;2023-03-01T15:25:51;18.50;;;11.80;;
50309;SDS011;36207;51.850;21.698;2023-03-01T15:28:23;22.50;;;11.90;;
50309;SDS011;36207;51.850;21.698;2023-03-01T15:30:55;22.70;;;12.50;;
50309;SDS011;36207;51.850;21.698;2023-03-01T15:33:29;19.60;;;12.50;;
50309;SDS011;36207;51.850;21.698;2023-03-01T15:36:01;22.50;;;13.00;;
50309;SDS011;36207;51.850;21.698;2023-03-01T15:38:53;21.50;;;13.30;;
50309;SDS011;36207;51.850;21.698;2023-03-01T15:44:27;22.20;;;12.40;;
50309;SDS011;36207;51.850;21.698;2023-03-01T15:46:56;20.70;;;13.40;;
50309;SDS011;36207;51.850;21.698;2023-03-01T15:52:00;26.50;;;12.80;;
50309;SDS011;36207;51.850;21.698;2023-03-01T15:54:26;19.90;;;12.50;;
50309;SDS011;36207;51.850;21.698;2023-03-01T15:56:53;31.00;;;13.00;;
50309;SDS011;36207;51.850;21.698;2023-03-01T15:59:19;19.70;;;12.80;;
50309;SDS011;36207;51.850;21.698;2023-03-01T16:01:45;23.60;;;13.60;;
50309;SDS011;36207;51.850;21.698;2023-03-01T16:04:15;35.40;;;18.60;;
50309;SDS011;36207;51.850;21.698;2023-03-01T16:06:52;52.30;;;31.10;;
50309;SDS011;36207;51.850;21.698;2023-03-01T16:09:22;41.30;;;24.50;;
50309;SDS011;36207;51.850;21.698;2023-03-01T16:11:49;30.80;;;19.50;;
50309;SDS011;36207;51.850;21.698;2023-03-01T16:14:15;30.30;;;18.50;;
50309;SDS011;36207;51.850;21.698;2023-03-01T16:16:42;30.60;;;18.80;;
50309;SDS011;36207;51.850;21.698;2023-03-01T16:19:08;29.30;;;17.80;;
50309;SDS011;36207;51.850;21.698;2023-03-01T16:21:35;34.10;;;17.70;;
50309;SDS011;36207;51.850;21.698;2023-03-01T16:24:01;30.40;;;17.50;;
50309;SDS011;36207;51.850;21.698;2023-03-01T16:26:27;29.70;;;17.40;;
50309;SDS011;36207;51.850;21.698;2023-03-01T16:28:54;35.70;;;20.40;;
50309;SDS011;36207;51.850;21.698;2023-03-01T16:31:22;41.70;;;23.20;;
50309;SDS011;36207;51.850;21.698;2023-03-01T16:33:49;46.60;;;23.70;;
50309;SDS011;36207;51.850;21.698;2023-03-01T16:36:18;48.50;;;24.60;;
50309;SDS011;36207;51.850;21.698;2023-03-01T16:38:45;57.20;;;29.90;;
50309;SDS011;36207;51.850;21.698;2023-03-01T16:41:13;63.10;;;34.30;;
50309;SDS011;36207;51.850;21.698;2023-03-01T16:43:40;67.60;;;34.80;;
50309;SDS011;36207;51.850;21.698;2023-03-01T16:46:14;67.20;;;34.20;;
50309;SDS011;36207;51.850;21.698;2023-03-01T16:48:45;84.90;;;37.30;;
50309;SDS011;36207;51.850;21.698;2023-03-01T16:51:12;85.50;;;38.30;;
50309;SDS011;36207;51.850;21.698;2023-03-01T16:53:38;84.10;;;34.60;;
50309;SDS011;36207;51.850;21.698;2023-03-01T16:56:07;79.10;;;33.60;;
50309;SDS011;36207;51.850;21.698;2023-03-01T16:58:35;83.90;;;33.90;;